createdAt,value
2018-03-17T00:00:28.576Z,9.50
2018-03-17T00:02:54.516Z,11.77
2018-03-17T00:05:21.359Z,6.67
2018-03-17T00:07:47.296Z,11.60
2018-03-17T00:10:14.029Z,9.17
2018-03-17T00:12:39.977Z,10.95
2018-03-17T00:15:06.095Z,12.00
2018-03-17T00:17:32.041Z,12.35
2018-03-17T00:19:58.016Z,7.87
2018-03-17T00:22:24.124Z,7.65
2018-03-17T00:24:50.090Z,14.95
2018-03-17T00:27:16.091Z,7.78
2018-03-17T00:29:42.040Z,8.02
2018-03-17T00:32:08.044Z,11.33
2018-03-17T00:34:34.716Z,8.73
2018-03-17T00:37:00.795Z,8.88
2018-03-17T00:39:27.509Z,9.18
2018-03-17T00:41:53.517Z,9.07
2018-03-17T00:44:19.476Z,7.72
2018-03-17T00:46:46.192Z,10.55
2018-03-17T00:49:12.182Z,13.57
2018-03-17T00:51:38.132Z,10.55
2018-03-17T00:54:04.223Z,8.03
2018-03-17T00:56:30.168Z,9.88
2018-03-17T00:58:56.152Z,10.90
2018-03-17T01:01:22.111Z,8.05
2018-03-17T01:03:48.217Z,8.70
2018-03-17T01:06:14.160Z,11.07
2018-03-17T01:08:40.100Z,9.17
2018-03-17T01:11:06.137Z,11.87
2018-03-17T01:13:32.109Z,10.23
2018-03-17T01:15:58.243Z,10.65
2018-03-17T01:18:24.192Z,12.02
2018-03-17T01:20:50.304Z,11.70
2018-03-17T01:23:16.241Z,9.25
2018-03-17T01:25:42.220Z,10.03
2018-03-17T01:28:08.160Z,10.50
2018-03-17T01:30:34.142Z,9.67
2018-03-17T01:33:00.104Z,10.10
2018-03-17T01:35:26.208Z,11.60
2018-03-17T01:37:52.148Z,11.95
2018-03-17T01:40:18.097Z,11.43
2018-03-17T01:42:44.057Z,16.63
2018-03-17T01:45:10.009Z,11.10
2018-03-17T01:47:35.977Z,13.73
2018-03-17T01:50:01.915Z,15.65
2018-03-17T01:52:28.023Z,12.20
2018-03-17T01:54:53.976Z,7.85
2018-03-17T01:57:19.952Z,9.70
2018-03-17T01:59:45.918Z,10.40
2018-03-17T02:02:11.891Z,11.57
2018-03-17T02:04:37.872Z,9.48
2018-03-17T02:07:03.964Z,7.72
2018-03-17T02:09:29.902Z,10.10
2018-03-17T02:11:55.904Z,11.17
2018-03-17T02:14:21.975Z,9.43
2018-03-17T02:16:47.940Z,9.02
2018-03-17T02:19:13.924Z,9.48
2018-03-17T02:21:39.913Z,11.00
2018-03-17T02:24:06.584Z,15.70
2018-03-17T02:26:32.546Z,14.50
2018-03-17T02:28:58.631Z,13.83
2018-03-17T02:31:24.597Z,14.10
2018-03-17T02:33:50.576Z,18.08
2018-03-17T02:36:16.556Z,16.25
2018-03-17T02:38:42.540Z,17.80
2018-03-17T02:41:08.491Z,21.05
2018-03-17T02:43:35.348Z,17.42
2018-03-17T02:46:02.034Z,19.20
2018-03-17T02:48:28.021Z,18.10
2018-03-17T02:50:53.981Z,20.62
2018-03-17T02:53:20.091Z,18.50
2018-03-17T02:55:46.077Z,19.15
2018-03-17T02:58:12.791Z,20.70
2018-03-17T03:00:38.795Z,22.48
2018-03-17T03:03:04.785Z,22.25
2018-03-17T03:05:30.724Z,23.98
2018-03-17T03:07:56.717Z,22.97
2018-03-17T03:10:22.712Z,26.37
2018-03-17T03:12:48.795Z,23.27
2018-03-17T03:15:14.756Z,27.58
2018-03-17T03:17:40.740Z,27.02
2018-03-17T03:20:06.716Z,25.10
2018-03-17T03:22:33.400Z,24.37
2018-03-17T03:24:59.372Z,25.52
2018-03-17T03:27:26.051Z,25.25
2018-03-17T03:29:52.130Z,29.40
2018-03-17T03:32:18.065Z,25.92
2018-03-17T03:34:44.789Z,27.60
2018-03-17T03:37:10.720Z,25.23
2018-03-17T03:39:37.446Z,30.90
2018-03-17T03:42:03.393Z,30.55
2018-03-17T03:44:29.393Z,30.67
2018-03-17T03:46:55.499Z,32.22
2018-03-17T03:49:21.443Z,29.80
2018-03-17T03:51:47.472Z,31.10
2018-03-17T03:54:14.170Z,32.08
2018-03-17T03:56:40.153Z,29.37
2018-03-17T03:59:06.088Z,31.50
2018-03-17T04:01:32.201Z,29.50
2018-03-17T04:03:58.175Z,32.22
2018-03-17T04:06:24.189Z,35.85
2018-03-17T04:08:50.160Z,38.17
2018-03-17T04:11:16.861Z,36.90
2018-03-17T04:13:43.000Z,33.85
2018-03-17T04:16:08.992Z,33.85
2018-03-17T04:18:35.111Z,36.53
2018-03-17T04:21:01.072Z,36.90
2018-03-17T04:23:27.025Z,35.10
2018-03-17T04:25:53.006Z,37.42
2018-03-17T04:28:18.972Z,41.65
2018-03-17T04:30:44.952Z,37.67
2018-03-17T04:33:10.892Z,37.63
2018-03-17T04:35:37.724Z,41.33
2018-03-17T04:38:03.695Z,44.60
2018-03-17T04:40:29.673Z,38.38
2018-03-17T04:42:55.628Z,40.25
2018-03-17T04:45:21.617Z,39.10
2018-03-17T04:47:47.610Z,39.33
2018-03-17T04:50:13.566Z,39.47
2018-03-17T04:52:39.659Z,38.58
2018-03-17T04:55:05.596Z,41.10
2018-03-17T04:57:31.596Z,39.30
2018-03-17T04:59:57.590Z,44.78
2018-03-17T05:02:24.256Z,38.55
2018-03-17T05:04:50.229Z,41.83
2018-03-17T05:07:16.931Z,43.28
2018-03-17T05:09:43.017Z,44.80
2018-03-17T05:12:08.953Z,43.15
2018-03-17T05:14:35.036Z,33.47
2018-03-17T05:17:01.897Z,45.17
2018-03-17T05:19:27.851Z,39.53
2018-03-17T05:21:53.804Z,39.20
2018-03-17T05:24:19.828Z,46.67
2018-03-17T05:26:45.761Z,46.17
2018-03-17T05:29:11.720Z,38.33
2018-03-17T05:31:37.683Z,47.83
2018-03-17T05:34:03.617Z,44.78
2018-03-17T05:36:29.602Z,44.33
2018-03-17T05:38:55.552Z,37.75
2018-03-17T05:41:21.660Z,43.25
2018-03-17T05:43:47.616Z,45.10
2018-03-17T05:46:14.359Z,45.00
2018-03-17T05:48:41.062Z,41.67
2018-03-17T05:51:07.069Z,39.53
2018-03-17T05:53:33.001Z,45.50
2018-03-17T05:55:59.050Z,47.07
2018-03-17T05:58:24.976Z,42.22
2018-03-17T06:00:50.955Z,39.72
2018-03-17T06:03:16.936Z,39.83
2018-03-17T06:05:42.902Z,43.13
2018-03-17T06:08:08.858Z,36.70
2018-03-17T06:10:34.954Z,38.33
2018-03-17T06:13:00.920Z,38.50
2018-03-17T06:15:27.745Z,42.80
2018-03-17T06:17:53.734Z,43.17
2018-03-17T06:20:19.689Z,38.13
2018-03-17T06:22:45.676Z,42.53
2018-03-17T06:25:11.617Z,39.42
2018-03-17T06:27:37.616Z,45.30
2018-03-17T06:30:03.571Z,40.30
2018-03-17T06:32:29.528Z,40.58
2018-03-17T06:34:55.495Z,42.72
2018-03-17T06:37:21.449Z,40.70
2018-03-17T06:39:47.458Z,41.75
2018-03-17T06:42:13.387Z,42.85
2018-03-17T06:44:39.365Z,43.70
2018-03-17T06:47:05.321Z,43.03
2018-03-17T06:49:31.304Z,41.13
2018-03-17T06:51:57.258Z,41.83
2018-03-17T06:54:23.220Z,45.72
2018-03-17T06:56:49.956Z,44.40
2018-03-17T06:59:15.901Z,41.92
2018-03-17T07:01:41.984Z,43.20
2018-03-17T07:04:07.948Z,37.20
2018-03-17T07:06:33.927Z,44.80
2018-03-17T07:08:59.889Z,38.95
2018-03-17T07:11:26.607Z,41.78
2018-03-17T07:13:52.716Z,42.38
2018-03-17T07:16:18.656Z,39.63
2018-03-17T07:18:45.504Z,43.10
2018-03-17T07:21:12.216Z,41.75
2018-03-17T07:23:38.188Z,41.83
2018-03-17T07:26:04.133Z,38.47
2018-03-17T07:28:30.095Z,40.15
2018-03-17T07:30:56.071Z,42.22
2018-03-17T07:33:22.030Z,42.22
2018-03-17T07:35:48.037Z,42.22
2018-03-17T07:38:13.996Z,40.30
2018-03-17T07:40:40.746Z,44.30
2018-03-17T07:43:07.416Z,39.85
2018-03-17T07:45:33.530Z,42.75
2018-03-17T07:47:59.502Z,39.78
2018-03-17T07:50:25.443Z,43.78
2018-03-17T07:52:52.222Z,47.03
2018-03-17T07:55:18.192Z,39.47
2018-03-17T07:57:44.203Z,41.45
2018-03-17T08:00:10.165Z,46.13
2018-03-17T08:02:36.947Z,44.75
2018-03-17T08:05:02.900Z,41.58
2018-03-17T08:07:28.889Z,40.08
2018-03-17T08:09:54.821Z,39.90
2018-03-17T08:12:20.814Z,40.60
2018-03-17T08:14:46.920Z,41.33
2018-03-17T08:17:13.592Z,40.05
2018-03-17T08:19:39.672Z,37.15
2018-03-17T08:22:06.348Z,34.90
2018-03-17T08:24:32.324Z,36.95
2018-03-17T08:26:58.263Z,37.20
2018-03-17T08:29:24.254Z,35.85
2018-03-17T08:31:50.219Z,33.28
2018-03-17T08:34:16.331Z,33.67
2018-03-17T08:36:43.036Z,37.15
2018-03-17T08:39:09.055Z,31.58
2018-03-17T08:41:34.995Z,34.70
2018-03-17T08:44:01.704Z,32.25
2018-03-17T08:46:27.693Z,36.17
2018-03-17T08:48:53.641Z,41.83
2018-03-17T08:51:19.630Z,37.00
2018-03-17T08:53:45.572Z,36.45
2018-03-17T08:56:11.588Z,34.55
2018-03-17T08:58:37.532Z,35.70
2018-03-17T09:01:03.537Z,36.85
2018-03-17T09:03:29.532Z,37.38
2018-03-17T09:05:55.451Z,36.08
2018-03-17T09:08:22.159Z,38.03
2018-03-17T09:10:48.310Z,37.13
2018-03-17T09:13:14.360Z,36.55
2018-03-17T09:15:40.340Z,42.80
2018-03-17T09:18:06.367Z,36.05
2018-03-17T09:20:32.297Z,38.47
2018-03-17T09:22:58.373Z,35.20
2018-03-17T09:25:24.336Z,37.00
2018-03-17T09:27:50.436Z,32.15
2018-03-17T09:30:16.413Z,35.05
2018-03-17T09:32:42.396Z,33.47
2018-03-17T09:35:08.331Z,40.75
2018-03-17T09:37:34.304Z,32.57
2018-03-17T09:40:00.253Z,35.05
2018-03-17T09:42:26.356Z,35.15
2018-03-17T09:44:52.327Z,35.25
2018-03-17T09:47:19.033Z,30.30
2018-03-17T09:49:44.993Z,37.45
2018-03-17T09:52:11.709Z,38.63
2018-03-17T09:54:37.811Z,36.80
2018-03-17T09:57:03.758Z,34.80
2018-03-17T09:59:29.721Z,32.30
2018-03-17T10:01:55.711Z,38.90
2018-03-17T10:04:21.660Z,37.08
2018-03-17T10:06:47.644Z,40.12
2018-03-17T10:09:13.581Z,36.10
2018-03-17T10:11:39.689Z,36.50
2018-03-17T10:14:05.849Z,35.78
2018-03-17T10:16:31.860Z,36.03
2018-03-17T10:18:58.570Z,37.33
2018-03-17T10:21:24.504Z,36.40
2018-03-17T10:23:50.482Z,34.03
2018-03-17T10:26:16.452Z,39.10
2018-03-17T10:28:42.555Z,41.00
2018-03-17T10:31:08.708Z,37.25
2018-03-17T10:33:34.694Z,38.65
2018-03-17T10:36:00.643Z,36.20
2018-03-17T10:38:26.643Z,35.25
2018-03-17T10:40:52.592Z,34.70
2018-03-17T10:43:18.679Z,33.72
2018-03-17T10:45:45.378Z,34.38
2018-03-17T10:48:12.088Z,33.60
2018-03-17T10:50:38.090Z,38.20
2018-03-17T10:53:04.045Z,32.58
2018-03-17T10:55:30.763Z,33.08
2018-03-17T10:57:56.739Z,33.08
2018-03-17T11:00:22.718Z,35.65
2018-03-17T11:02:48.665Z,31.70
2018-03-17T11:05:14.771Z,33.30
2018-03-17T11:07:40.732Z,33.30
2018-03-17T11:10:06.721Z,30.48
2018-03-17T11:12:32.799Z,31.08
2018-03-17T11:14:58.937Z,32.75
2018-03-17T11:17:24.883Z,32.22
2018-03-17T11:19:50.894Z,27.62
2018-03-17T11:22:16.853Z,35.83
2018-03-17T11:24:43.713Z,31.70
2018-03-17T11:27:09.698Z,35.60
2018-03-17T11:29:35.655Z,36.72
2018-03-17T11:32:01.619Z,32.10
2018-03-17T11:34:27.568Z,32.58
2018-03-17T11:36:53.684Z,30.77
2018-03-17T11:39:19.615Z,31.00
2018-03-17T11:41:45.596Z,31.37
2018-03-17T11:44:11.552Z,30.83
2018-03-17T11:46:37.499Z,31.90
2018-03-17T11:49:04.241Z,36.92
2018-03-17T11:51:30.927Z,32.58
2018-03-17T11:53:57.016Z,32.47
2018-03-17T11:56:22.980Z,32.95
2018-03-17T11:58:48.972Z,29.12
2018-03-17T12:01:14.924Z,30.67
2018-03-17T12:03:40.904Z,33.28
2018-03-17T12:06:06.851Z,29.58
2018-03-17T12:08:32.789Z,32.70
2018-03-17T12:10:58.885Z,33.67
2018-03-17T12:13:25.003Z,32.92
2018-03-17T12:15:51.023Z,32.67
2018-03-17T12:18:17.033Z,28.62
2018-03-17T12:20:43.751Z,29.65
2018-03-17T12:23:09.753Z,31.48
2018-03-17T12:25:35.852Z,32.47
2018-03-17T12:28:01.826Z,27.05
2018-03-17T12:30:27.765Z,30.75
2018-03-17T12:32:54.549Z,29.47
2018-03-17T12:35:20.504Z,29.87
2018-03-17T12:37:46.456Z,28.90
2018-03-17T12:40:12.405Z,27.95
2018-03-17T12:42:38.406Z,28.48
2018-03-17T12:45:04.388Z,31.30
2018-03-17T12:47:30.399Z,27.02
2018-03-17T12:49:56.465Z,29.70
2018-03-17T12:52:23.189Z,27.17
2018-03-17T12:54:49.917Z,31.67
2018-03-17T12:57:15.847Z,28.98
2018-03-17T12:59:41.961Z,29.17
2018-03-17T13:02:07.913Z,29.05
2018-03-17T13:04:33.889Z,31.25
2018-03-17T13:06:59.842Z,29.98
2018-03-17T13:09:25.849Z,26.05
2018-03-17T13:11:51.785Z,28.80
2018-03-17T13:14:17.928Z,29.33
2018-03-17T13:16:44.821Z,29.92
2018-03-17T13:19:10.786Z,27.37
2018-03-17T13:21:37.588Z,33.10
2018-03-17T13:24:03.532Z,32.03
2018-03-17T13:26:29.511Z,29.53
2018-03-17T13:28:55.473Z,28.77
2018-03-17T13:31:21.496Z,29.92
2018-03-17T13:33:47.458Z,29.12
2018-03-17T13:36:13.454Z,28.00
2018-03-17T13:38:40.153Z,33.00
2018-03-17T13:41:06.125Z,30.00
2018-03-17T13:43:32.800Z,29.37
2018-03-17T13:45:58.753Z,28.92
2018-03-17T13:48:24.865Z,30.17
2018-03-17T13:50:50.905Z,26.58
2018-03-17T13:53:16.917Z,26.12
2018-03-17T13:55:42.861Z,23.85
2018-03-17T13:58:08.835Z,27.87
2018-03-17T14:00:34.820Z,28.83
2018-03-17T14:03:01.657Z,27.60
2018-03-17T14:05:28.345Z,28.58
2018-03-17T14:07:54.360Z,29.77
2018-03-17T14:10:20.375Z,26.73
2018-03-17T14:12:46.376Z,31.70
2018-03-17T14:15:13.244Z,31.05
2018-03-17T14:17:39.195Z,30.77
2018-03-17T14:20:05.287Z,29.63
2018-03-17T14:22:31.242Z,29.98
2018-03-17T14:24:57.205Z,34.30
2018-03-17T14:27:23.913Z,29.00
2018-03-17T14:29:49.913Z,32.47
2018-03-17T14:32:15.881Z,30.98
2018-03-17T14:34:41.900Z,31.37
2018-03-17T14:37:07.860Z,32.70
2018-03-17T14:39:33.881Z,36.28
2018-03-17T14:41:59.852Z,32.80
2018-03-17T14:44:25.843Z,30.83
2018-03-17T14:46:51.844Z,29.63
2018-03-17T14:49:17.790Z,26.95
2018-03-17T14:51:43.794Z,32.88
2018-03-17T14:54:09.740Z,34.75
2018-03-17T14:56:35.736Z,32.95
2018-03-17T14:59:01.776Z,36.05
2018-03-17T15:01:27.780Z,30.35
2018-03-17T15:03:53.741Z,29.42
2018-03-17T15:06:19.842Z,35.00
2018-03-17T15:08:45.800Z,35.53
2018-03-17T15:11:11.775Z,36.35
2018-03-17T15:13:37.797Z,33.50
2018-03-17T15:16:03.899Z,35.10
2018-03-17T15:18:30.614Z,34.40
2018-03-17T15:20:56.574Z,28.58
2018-03-17T15:23:23.411Z,29.95
2018-03-17T15:25:50.120Z,33.95
2018-03-17T15:28:16.072Z,29.58
2018-03-17T15:30:42.791Z,29.50
2018-03-17T15:33:08.756Z,34.83
2018-03-17T15:35:34.739Z,34.47
2018-03-17T15:38:00.681Z,33.45
2018-03-17T15:40:26.782Z,29.58
2018-03-17T15:42:52.728Z,31.42
2018-03-17T15:45:18.714Z,34.03
2018-03-17T15:47:44.657Z,30.25
2018-03-17T15:50:10.652Z,30.23
2018-03-17T15:52:36.633Z,31.27
2018-03-17T15:55:02.768Z,34.92
2018-03-17T15:57:28.759Z,32.22
2018-03-17T15:59:55.528Z,29.63
2018-03-17T16:02:22.204Z,32.30
2018-03-17T16:04:48.211Z,32.35
2018-03-17T16:07:14.173Z,32.00
2018-03-17T16:09:40.294Z,32.38
2018-03-17T16:12:06.235Z,29.20
2018-03-17T16:14:32.347Z,31.83
2018-03-17T16:16:59.188Z,29.95
2018-03-17T16:19:25.881Z,30.55
2018-03-17T16:21:51.848Z,32.40
2018-03-17T16:24:18.542Z,43.90
2018-03-17T16:26:44.572Z,32.83
2018-03-17T16:29:10.541Z,33.55
2018-03-17T16:31:36.566Z,31.30
2018-03-17T16:34:03.265Z,29.02
2018-03-17T16:36:29.249Z,29.45
2018-03-17T16:38:55.236Z,29.30
2018-03-17T16:41:21.332Z,28.42
2018-03-17T16:43:47.268Z,26.92
2018-03-17T16:46:13.219Z,28.33
2018-03-17T16:48:39.228Z,28.23
2018-03-17T16:51:05.183Z,27.67
2018-03-17T16:53:31.180Z,27.35
2018-03-17T16:55:57.893Z,25.02
2018-03-17T16:58:23.913Z,28.87
2018-03-17T17:00:49.877Z,29.12
2018-03-17T17:03:16.792Z,29.40
2018-03-17T17:05:42.752Z,29.58
2018-03-17T17:08:08.710Z,33.13
2018-03-17T17:10:34.705Z,26.90
2018-03-17T17:13:00.659Z,26.67
2018-03-17T17:15:26.966Z,27.80
2018-03-17T17:17:52.939Z,27.15
2018-03-17T17:20:18.940Z,28.77
2018-03-17T17:22:44.892Z,26.98
2018-03-17T17:25:10.838Z,27.92
2018-03-17T17:27:36.804Z,26.08
2018-03-17T17:30:02.776Z,29.58
2018-03-17T17:32:28.760Z,26.02
2018-03-17T17:34:54.721Z,27.17
2018-03-17T17:37:20.808Z,28.20
2018-03-17T17:39:46.757Z,28.55
2018-03-17T17:42:13.516Z,27.55
2018-03-17T17:44:39.468Z,25.83
2018-03-17T17:47:05.424Z,24.33
2018-03-17T17:49:31.441Z,26.85
2018-03-17T17:51:57.416Z,28.40
2018-03-17T17:54:23.458Z,25.10
2018-03-17T17:56:49.405Z,23.38
2018-03-17T17:59:15.371Z,29.00
2018-03-17T18:01:41.394Z,24.20
2018-03-17T18:04:07.335Z,24.80
2018-03-17T18:06:33.350Z,24.75
2018-03-17T18:08:59.316Z,30.88
2018-03-17T18:11:25.265Z,23.15
2018-03-17T18:13:52.236Z,30.58
2018-03-17T18:16:18.233Z,23.77
2018-03-17T18:18:44.959Z,26.67
2018-03-17T18:21:11.759Z,29.63
2018-03-17T18:23:37.708Z,25.77
2018-03-17T18:26:03.677Z,27.52
2018-03-17T18:28:30.447Z,28.40
2018-03-17T18:30:56.433Z,24.30
2018-03-17T18:33:22.437Z,28.42
2018-03-17T18:35:48.497Z,26.25
2018-03-17T18:38:14.455Z,27.30
2018-03-17T18:40:40.574Z,24.17
2018-03-17T18:43:06.527Z,29.55
2018-03-17T18:45:32.636Z,25.70
2018-03-17T18:47:58.603Z,27.60
2018-03-17T18:50:24.609Z,28.10
2018-03-17T18:52:51.310Z,26.33
2018-03-17T18:55:17.261Z,25.35
2018-03-17T18:57:43.996Z,28.17
2018-03-17T19:00:10.706Z,27.58
2018-03-17T19:02:36.809Z,28.80
2018-03-17T19:05:02.788Z,29.80
2018-03-17T19:07:28.728Z,28.20
2018-03-17T19:09:54.668Z,26.80
2018-03-17T19:12:20.666Z,28.02
2018-03-17T19:14:46.789Z,26.85
2018-03-17T19:17:13.508Z,27.30
2018-03-17T19:19:39.503Z,31.12
2018-03-17T19:22:05.454Z,28.17
2018-03-17T19:24:31.451Z,32.45
2018-03-17T19:26:57.424Z,28.20
2018-03-17T19:29:23.520Z,27.10
2018-03-17T19:31:49.487Z,29.40
2018-03-17T19:34:15.509Z,28.80
2018-03-17T19:36:41.464Z,26.83
2018-03-17T19:39:07.405Z,28.70
2018-03-17T19:41:33.386Z,27.87
2018-03-17T19:43:59.480Z,22.33
2018-03-17T19:46:26.201Z,31.20
2018-03-17T19:48:52.157Z,25.25
2018-03-17T19:51:18.181Z,25.70
2018-03-17T19:53:44.131Z,27.02
2018-03-17T19:56:10.137Z,34.58
2018-03-17T19:58:36.084Z,28.55
2018-03-17T20:01:02.029Z,25.98
2018-03-17T20:03:28.117Z,34.20
2018-03-17T20:05:54.796Z,27.00
2018-03-17T20:08:20.786Z,26.45
2018-03-17T20:10:46.759Z,30.40
2018-03-17T20:13:13.579Z,33.95
2018-03-17T20:15:39.615Z,37.10
2018-03-17T20:18:06.342Z,30.65
2018-03-17T20:20:32.477Z,32.85
2018-03-17T20:22:58.443Z,36.40
2018-03-17T20:25:24.450Z,33.00
2018-03-17T20:27:50.444Z,37.03
2018-03-17T20:30:16.409Z,30.15
2018-03-17T20:32:42.523Z,33.15
2018-03-17T20:35:08.491Z,30.17
2018-03-17T20:37:34.483Z,29.02
2018-03-17T20:40:00.432Z,34.15
2018-03-17T20:42:26.564Z,29.70
2018-03-17T20:44:52.516Z,33.35
2018-03-17T20:47:19.286Z,28.40
2018-03-17T20:49:45.245Z,28.92
2018-03-17T20:52:11.180Z,30.30
2018-03-17T20:54:37.205Z,28.75
2018-03-17T20:57:03.203Z,37.83
2018-03-17T20:59:29.178Z,31.65
2018-03-17T21:01:55.861Z,40.40
2018-03-17T21:04:21.790Z,35.67
2018-03-17T21:06:47.915Z,32.37
2018-03-17T21:09:13.869Z,30.90
2018-03-17T21:11:40.602Z,33.60
2018-03-17T21:14:06.736Z,36.95
2018-03-17T21:16:32.668Z,33.78
2018-03-17T21:18:59.378Z,31.45
2018-03-17T21:21:25.502Z,34.63
2018-03-17T21:23:51.468Z,34.58
2018-03-17T21:26:17.478Z,37.40
2018-03-17T21:28:44.166Z,36.10
2018-03-17T21:31:10.119Z,39.50
2018-03-17T21:33:36.225Z,37.28
2018-03-17T21:36:02.189Z,35.63
2018-03-17T21:38:28.912Z,37.90
2018-03-17T21:40:54.933Z,34.97
2018-03-17T21:43:20.874Z,32.10
2018-03-17T21:45:47.585Z,37.05
2018-03-17T21:48:13.697Z,34.28
2018-03-17T21:50:39.656Z,37.55
2018-03-17T21:53:06.466Z,37.92
2018-03-17T21:55:32.421Z,33.83
2018-03-17T21:57:59.152Z,33.75
2018-03-17T22:00:25.879Z,38.78
2018-03-17T22:02:51.917Z,35.38
2018-03-17T22:05:18.648Z,34.47
2018-03-17T22:07:44.781Z,41.33
2018-03-17T22:10:10.717Z,37.45
2018-03-17T22:12:37.445Z,38.08
2018-03-17T22:15:04.274Z,40.45
2018-03-17T22:17:30.247Z,35.30
2018-03-17T22:19:56.233Z,40.08
2018-03-17T22:22:22.995Z,39.20
2018-03-17T22:24:49.096Z,32.90
2018-03-17T22:27:15.832Z,42.65
2018-03-17T22:29:42.512Z,37.28
2018-03-17T22:32:08.480Z,39.15
2018-03-17T22:34:34.457Z,40.33
2018-03-17T22:37:00.408Z,43.72
2018-03-17T22:39:26.425Z,37.15
2018-03-17T22:41:52.383Z,30.98
2018-03-17T22:44:19.098Z,41.58
2018-03-17T22:46:45.119Z,35.47
2018-03-17T22:49:11.062Z,37.15
2018-03-17T22:51:37.050Z,32.85
2018-03-17T22:54:03.018Z,38.95
2018-03-17T22:56:29.847Z,35.25
2018-03-17T22:58:55.792Z,35.63
2018-03-17T23:01:22.519Z,39.30
2018-03-17T23:03:49.218Z,39.80
2018-03-17T23:06:15.216Z,37.45
2018-03-17T23:08:41.169Z,37.42
2018-03-17T23:11:07.105Z,36.17
2018-03-17T23:13:33.208Z,33.25
2018-03-17T23:15:59.179Z,38.22
2018-03-17T23:18:25.167Z,35.22
2018-03-17T23:20:51.114Z,37.53
2018-03-17T23:23:17.820Z,39.03
2018-03-17T23:25:43.788Z,33.83
2018-03-17T23:28:10.657Z,38.28
2018-03-17T23:30:36.602Z,42.08
2018-03-17T23:33:02.546Z,40.35
2018-03-17T23:35:28.514Z,37.63
2018-03-17T23:37:54.444Z,38.50
2018-03-17T23:40:20.413Z,36.00
2018-03-17T23:42:46.351Z,30.80
2018-03-17T23:45:13.176Z,42.88
2018-03-17T23:47:39.128Z,36.47
2018-03-17T23:50:05.863Z,38.28
2018-03-17T23:52:32.552Z,34.65
2018-03-17T23:54:58.503Z,40.03
2018-03-17T23:57:24.471Z,37.75
2018-03-17T23:59:50.448Z,39.78
